createdAt,value
2019-05-20T00:01:49.821Z,81.21
2019-05-20T00:04:17.719Z,80.36
2019-05-20T00:06:44.446Z,79.99
2019-05-20T00:09:12.234Z,79.87
2019-05-20T00:11:38.890Z,80.38
2019-05-20T00:14:05.943Z,79.99
2019-05-20T00:16:33.066Z,79.15
2019-05-20T00:18:59.815Z,79.36
2019-05-20T00:21:26.659Z,79.68
2019-05-20T00:23:53.241Z,78.91
2019-05-20T00:26:20.005Z,80.18
2019-05-20T00:28:47.089Z,78.84
2019-05-20T00:31:13.946Z,79.87
2019-05-20T00:33:40.821Z,79.32
2019-05-20T00:36:07.699Z,79.31
2019-05-20T00:38:35.681Z,80.01
2019-05-20T00:41:02.669Z,80.69
2019-05-20T00:43:29.383Z,79.95
2019-05-20T00:45:56.178Z,80.04
2019-05-20T00:48:22.821Z,81.92
2019-05-20T00:50:51.254Z,80.09
2019-05-20T00:53:18.382Z,80.37
2019-05-20T00:55:45.713Z,79.83
2019-05-20T00:58:15.098Z,78.73
2019-05-20T01:00:43.232Z,79.44
2019-05-20T01:03:13.402Z,79.98
2019-05-20T01:05:40.631Z,79.55
2019-05-20T01:08:07.354Z,79.08
2019-05-20T01:10:34.202Z,79.60
2019-05-20T01:13:00.852Z,79.58
2019-05-20T01:15:27.695Z,80.70
2019-05-20T01:17:54.408Z,79.95
2019-05-20T01:20:21.489Z,80.19
2019-05-20T01:22:48.231Z,80.14
2019-05-20T01:25:15.051Z,80.06
2019-05-20T01:27:41.859Z,80.26
2019-05-20T01:30:11.494Z,81.11
2019-05-20T01:32:39.508Z,80.89
2019-05-20T01:35:07.931Z,80.78
2019-05-20T01:37:34.849Z,81.35
2019-05-20T01:40:02.326Z,80.44
2019-05-20T01:42:30.220Z,80.57
2019-05-20T01:44:56.821Z,80.09
2019-05-20T01:47:24.259Z,80.08
2019-05-20T01:49:50.965Z,80.77
2019-05-20T01:52:17.692Z,80.73
2019-05-20T01:54:44.577Z,80.38
2019-05-20T01:57:11.294Z,81.06
2019-05-20T01:59:37.944Z,81.29
2019-05-20T02:02:05.960Z,80.72
2019-05-20T02:04:33.015Z,81.49
2019-05-20T02:06:59.694Z,80.96
2019-05-20T02:09:27.423Z,80.84
2019-05-20T02:11:54.322Z,81.97
2019-05-20T02:14:23.124Z,81.20
2019-05-20T02:16:51.118Z,82.12
2019-05-20T02:19:17.998Z,81.08
2019-05-20T02:21:44.616Z,81.34
2019-05-20T02:24:11.726Z,81.31
2019-05-20T02:26:39.815Z,82.25
2019-05-20T02:29:06.638Z,81.82
2019-05-20T02:31:33.448Z,81.24
2019-05-20T02:34:02.077Z,81.15
2019-05-20T02:36:28.768Z,81.70
2019-05-20T02:38:55.348Z,82.31
2019-05-20T02:41:25.082Z,81.42
2019-05-20T02:43:53.063Z,81.71
2019-05-20T02:46:19.919Z,82.61
2019-05-20T02:48:47.719Z,81.12
2019-05-20T02:51:16.433Z,82.08
2019-05-20T02:53:43.141Z,81.07
2019-05-20T02:56:09.760Z,81.89
2019-05-20T02:58:36.342Z,82.10
2019-05-20T03:01:06.088Z,81.75
2019-05-20T03:03:32.890Z,82.38
2019-05-20T03:05:59.475Z,82.00
2019-05-20T03:08:26.456Z,81.73
2019-05-20T03:10:53.187Z,81.60
2019-05-20T03:13:19.970Z,80.58
2019-05-20T03:15:46.590Z,81.74
2019-05-20T03:18:13.694Z,80.74
2019-05-20T03:20:41.750Z,80.64
2019-05-20T03:23:09.712Z,80.51
2019-05-20T03:25:36.537Z,80.95
2019-05-20T03:28:03.358Z,81.54
2019-05-20T03:30:31.253Z,81.46
2019-05-20T03:32:58.404Z,80.59
2019-05-20T03:35:25.321Z,81.35
2019-05-20T03:37:52.371Z,81.18
2019-05-20T03:40:19.931Z,80.91
2019-05-20T03:42:47.187Z,81.46
2019-05-20T03:45:14.087Z,81.17
2019-05-20T03:47:41.360Z,80.60
2019-05-20T03:50:08.497Z,80.99
2019-05-20T03:52:35.187Z,81.11
2019-05-20T03:55:05.664Z,80.97
2019-05-20T03:57:32.298Z,80.49
2019-05-20T03:59:59.606Z,80.76
2019-05-20T04:02:26.265Z,79.79
2019-05-20T04:05:02.398Z,79.88
2019-05-20T04:07:25.368Z,80.08
2019-05-20T04:09:52.361Z,80.28
2019-05-20T04:12:19.246Z,79.88
2019-05-20T04:14:49.051Z,78.80
2019-05-20T04:17:15.836Z,79.50
2019-05-20T04:19:43.845Z,79.30
2019-05-20T04:22:10.465Z,78.92
2019-05-20T04:24:37.095Z,79.17
2019-05-20T04:27:03.772Z,78.55
2019-05-20T04:29:30.347Z,77.99
2019-05-20T04:31:57.148Z,77.15
2019-05-20T04:35:23.426Z,77.56
2019-05-20T04:37:50.607Z,77.29
2019-05-20T04:40:19.921Z,76.37
2019-05-20T04:42:46.827Z,77.15
2019-05-20T04:45:16.249Z,77.77
2019-05-20T04:47:43.808Z,77.07
2019-05-20T04:50:11.415Z,76.33
2019-05-20T04:52:38.040Z,75.18
2019-05-20T04:55:06.889Z,75.69
2019-05-20T04:57:33.533Z,75.87
2019-05-20T05:00:00.173Z,75.73
2019-05-20T05:02:27.054Z,75.11
2019-05-20T05:04:53.727Z,76.18
2019-05-20T05:07:20.948Z,74.94
2019-05-20T05:09:48.894Z,74.92
2019-05-20T05:12:15.992Z,76.33
2019-05-20T05:14:42.919Z,75.83
2019-05-20T05:17:11.463Z,75.39
2019-05-20T05:19:38.742Z,74.29
2019-05-20T05:22:05.637Z,75.28
2019-05-20T05:24:33.053Z,74.22
2019-05-20T05:26:59.860Z,74.58
2019-05-20T05:29:26.644Z,73.17
2019-05-20T05:31:53.633Z,72.69
2019-05-20T05:34:20.385Z,72.54
2019-05-20T05:36:47.754Z,71.77
2019-05-20T05:39:14.799Z,72.50
2019-05-20T05:41:42.889Z,71.91
2019-05-20T05:44:09.869Z,70.25
2019-05-20T05:46:36.724Z,71.00
2019-05-20T05:49:04.654Z,71.16
2019-05-20T05:51:31.552Z,71.29
2019-05-20T05:54:00.483Z,70.20
2019-05-20T05:56:27.260Z,71.21
2019-05-20T05:58:53.854Z,71.33
2019-05-20T06:01:20.690Z,70.81
2019-05-20T06:03:47.542Z,71.87
2019-05-20T06:06:14.185Z,71.91
2019-05-20T06:08:42.111Z,70.33
2019-05-20T06:11:10.063Z,70.72
2019-05-20T06:13:37.224Z,69.43
2019-05-20T06:16:04.272Z,67.83
2019-05-20T06:19:28.541Z,67.58
2019-05-20T06:21:56.536Z,67.74
2019-05-20T06:25:21.629Z,67.09
2019-05-20T06:27:48.342Z,68.15
2019-05-20T06:30:16.782Z,64.99
2019-05-20T06:32:43.754Z,65.21
2019-05-20T06:35:12.979Z,64.57
2019-05-20T06:37:43.113Z,64.53
2019-05-20T06:40:11.035Z,64.15
2019-05-20T06:42:37.951Z,63.40
2019-05-20T06:45:06.437Z,63.62
2019-05-20T06:47:34.259Z,63.14
2019-05-20T06:50:04.122Z,62.38
2019-05-20T06:52:35.719Z,64.36
2019-05-20T06:54:59.817Z,63.73
2019-05-20T06:57:26.462Z,63.33
2019-05-20T06:59:53.302Z,63.82
2019-05-20T07:02:23.406Z,62.37
2019-05-20T07:04:50.567Z,62.84
2019-05-20T07:07:21.005Z,63.23
2019-05-20T07:09:46.325Z,62.69
2019-05-20T07:12:12.978Z,60.14
2019-05-20T07:14:39.533Z,60.74
2019-05-20T07:17:08.177Z,60.12
2019-05-20T07:20:31.531Z,58.51
2019-05-20T07:22:58.307Z,58.91
2019-05-20T07:25:25.508Z,58.43
2019-05-20T07:27:53.390Z,59.19
2019-05-20T07:30:20.851Z,58.76
2019-05-20T07:32:52.319Z,59.73
2019-05-20T07:35:29.776Z,60.37
2019-05-20T07:37:48.702Z,60.13
2019-05-20T07:40:21.054Z,60.87
2019-05-20T07:42:49.091Z,60.11
2019-05-20T07:45:16.138Z,59.86
2019-05-20T07:47:43.128Z,59.34
2019-05-20T07:50:12.082Z,58.49
2019-05-20T07:52:39.342Z,57.47
2019-05-20T07:55:08.004Z,58.27
2019-05-20T07:57:39.915Z,56.58
2019-05-20T08:00:09.768Z,57.74
2019-05-20T08:02:36.992Z,57.22
2019-05-20T08:05:07.648Z,55.61
2019-05-20T08:07:50.659Z,56.93
2019-05-20T08:10:06.211Z,59.22
2019-05-20T08:12:34.397Z,55.83
2019-05-20T08:15:03.886Z,56.26
2019-05-20T08:17:30.817Z,56.52
2019-05-20T08:19:58.865Z,55.96
2019-05-20T08:22:26.065Z,56.01
2019-05-20T08:24:53.236Z,55.87
2019-05-20T08:27:21.490Z,56.60
2019-05-20T08:29:49.842Z,55.71
2019-05-20T08:32:17.761Z,55.52
2019-05-20T08:34:44.867Z,53.95
2019-05-20T08:37:11.560Z,53.87
2019-05-20T08:39:39.783Z,53.45
2019-05-20T08:42:08.993Z,52.71
2019-05-20T08:44:35.891Z,53.54
2019-05-20T08:47:04.459Z,53.01
2019-05-20T08:49:32.445Z,53.53
2019-05-20T08:51:59.519Z,53.03
2019-05-20T08:54:26.397Z,54.04
2019-05-20T08:56:54.207Z,54.14
2019-05-20T08:59:25.635Z,55.43
2019-05-20T09:01:53.667Z,55.41
2019-05-20T09:04:20.447Z,54.13
2019-05-20T09:06:47.522Z,54.18
2019-05-20T09:09:15.690Z,53.95
2019-05-20T09:11:47.280Z,53.12
2019-05-20T09:14:12.084Z,53.91
2019-05-20T09:16:40.128Z,53.34
2019-05-20T09:19:07.270Z,52.25
2019-05-20T09:21:33.933Z,52.37
2019-05-20T09:24:02.129Z,53.15
2019-05-20T09:26:28.921Z,52.45
2019-05-20T09:28:58.340Z,52.67
2019-05-20T09:31:26.674Z,53.68
2019-05-20T09:33:53.453Z,54.66
2019-05-20T09:36:20.491Z,53.11
2019-05-20T09:38:47.547Z,53.68
2019-05-20T09:41:14.327Z,53.20
2019-05-20T09:43:41.459Z,53.63
2019-05-20T09:46:08.539Z,51.45
2019-05-20T09:48:35.762Z,52.01
2019-05-20T09:51:03.599Z,52.00
2019-05-20T09:53:30.580Z,52.53
2019-05-20T09:55:57.533Z,51.40
2019-05-20T09:58:24.304Z,50.89
2019-05-20T10:00:51.345Z,51.87
2019-05-20T10:03:18.648Z,53.63
2019-05-20T10:05:46.511Z,52.59
2019-05-20T10:08:13.315Z,53.40
2019-05-20T10:10:40.260Z,51.46
2019-05-20T10:13:08.571Z,50.51
2019-05-20T10:15:36.076Z,51.93
2019-05-20T10:18:03.055Z,50.36
2019-05-20T10:20:29.646Z,50.32
2019-05-20T10:22:57.393Z,50.84
2019-05-20T10:25:24.337Z,50.59
2019-05-20T10:27:51.375Z,49.33
2019-05-20T10:30:20.256Z,50.71
2019-05-20T10:32:49.453Z,50.27
2019-05-20T10:35:16.802Z,51.15
2019-05-20T10:37:43.724Z,50.57
2019-05-20T10:40:12.831Z,50.22
2019-05-20T10:42:39.682Z,50.42
2019-05-20T10:45:07.254Z,49.48
2019-05-20T10:47:35.149Z,49.53
2019-05-20T10:50:05.856Z,50.80
2019-05-20T10:52:32.605Z,50.70
2019-05-20T10:54:59.488Z,51.73
2019-05-20T10:57:26.573Z,51.71
2019-05-20T10:59:53.354Z,53.45
2019-05-20T11:02:20.380Z,50.87
2019-05-20T11:04:47.270Z,51.53
2019-05-20T11:07:15.266Z,52.14
2019-05-20T11:09:41.857Z,51.87
2019-05-20T11:12:09.832Z,53.57
2019-05-20T11:14:36.671Z,52.08
2019-05-20T11:17:03.730Z,52.29
2019-05-20T11:19:30.770Z,51.92
2019-05-20T11:21:57.442Z,52.53
2019-05-20T11:24:26.670Z,53.31
2019-05-20T11:26:54.517Z,59.64
2019-05-20T11:29:21.735Z,60.46
2019-05-20T11:31:48.867Z,65.94
2019-05-20T11:34:15.671Z,67.33
2019-05-20T11:36:42.565Z,66.73
2019-05-20T11:39:11.507Z,67.20
2019-05-20T11:41:52.874Z,65.73
2019-05-20T11:44:11.786Z,66.69
2019-05-20T11:46:37.012Z,67.84
2019-05-20T11:49:03.927Z,63.45
2019-05-20T11:51:31.859Z,65.66
2019-05-20T11:53:58.995Z,66.70
2019-05-20T11:56:27.088Z,65.76
2019-05-20T11:58:53.907Z,66.30
2019-05-20T12:01:20.977Z,63.40
2019-05-20T12:03:47.795Z,63.66
2019-05-20T12:06:15.775Z,63.72
2019-05-20T12:08:42.662Z,63.87
2019-05-20T12:11:09.622Z,62.43
2019-05-20T12:13:36.589Z,64.31
2019-05-20T12:16:04.958Z,65.37
2019-05-20T12:18:31.774Z,66.34
2019-05-20T12:20:59.431Z,65.30
2019-05-20T12:23:27.438Z,65.38
2019-05-20T12:25:56.462Z,63.50
2019-05-20T12:28:23.216Z,64.35
2019-05-20T12:30:51.466Z,64.54
2019-05-20T12:33:19.503Z,65.46
2019-05-20T12:35:47.101Z,65.37
2019-05-20T12:38:13.794Z,64.63
2019-05-20T12:40:41.979Z,65.26
2019-05-20T12:43:08.689Z,66.18
2019-05-20T12:45:36.730Z,65.65
2019-05-20T12:48:03.813Z,64.71
2019-05-20T12:50:31.102Z,66.75
2019-05-20T12:52:58.168Z,65.84
2019-05-20T12:55:24.941Z,64.35
2019-05-20T12:57:52.353Z,63.48
2019-05-20T13:00:22.178Z,64.11
2019-05-20T13:02:50.057Z,64.10
2019-05-20T13:05:18.179Z,64.80
2019-05-20T13:07:46.394Z,66.03
2019-05-20T13:10:29.261Z,67.26
2019-05-20T13:12:43.177Z,68.15
2019-05-20T13:15:12.470Z,68.43
2019-05-20T13:17:45.462Z,67.28
2019-05-20T13:20:14.230Z,66.79
2019-05-20T13:22:41.255Z,67.39
2019-05-20T13:25:09.067Z,64.88
2019-05-20T13:27:35.732Z,67.36
2019-05-20T13:30:06.446Z,67.20
2019-05-20T13:32:33.559Z,66.58
2019-05-20T13:35:00.898Z,66.81
2019-05-20T13:37:27.470Z,66.46
2019-05-20T13:39:54.518Z,67.63
2019-05-20T13:42:22.534Z,67.60
2019-05-20T13:44:49.288Z,68.59
2019-05-20T13:47:17.193Z,68.58
2019-05-20T13:49:45.105Z,68.57
2019-05-20T13:52:11.921Z,68.48
2019-05-20T13:54:39.174Z,67.61
2019-05-20T13:57:07.109Z,66.92
2019-05-20T13:59:33.938Z,66.70
2019-05-20T14:02:02.086Z,64.45
2019-05-20T14:04:28.693Z,62.49
2019-05-20T14:06:55.738Z,61.36
2019-05-20T14:09:23.755Z,63.06
2019-05-20T14:11:51.225Z,60.94
2019-05-20T14:14:19.089Z,60.55
2019-05-20T14:16:45.896Z,58.91
2019-05-20T14:19:13.771Z,57.38
2019-05-20T14:21:40.474Z,57.19
2019-05-20T14:24:09.430Z,57.77
2019-05-20T14:26:36.882Z,58.29
2019-05-20T14:29:03.631Z,57.60
2019-05-20T14:31:30.845Z,56.84
2019-05-20T14:33:57.779Z,56.61
2019-05-20T14:36:38.753Z,57.30
2019-05-20T14:38:53.243Z,57.13
2019-05-20T14:41:22.356Z,57.73
2019-05-20T14:43:49.539Z,59.80
2019-05-20T14:46:16.309Z,59.85
2019-05-20T14:48:43.610Z,59.31
2019-05-20T14:51:11.680Z,58.37
2019-05-20T14:53:38.361Z,57.75
2019-05-20T14:56:06.129Z,57.48
2019-05-20T14:58:33.206Z,58.62
2019-05-20T15:01:00.324Z,57.56
2019-05-20T15:03:29.433Z,58.57
2019-05-20T15:05:57.345Z,58.22
2019-05-20T15:08:24.153Z,58.46
2019-05-20T15:10:50.842Z,58.52
2019-05-20T15:13:17.856Z,60.79
2019-05-20T15:15:48.384Z,59.07
2019-05-20T15:18:14.421Z,59.84
2019-05-20T15:20:41.343Z,59.46
2019-05-20T15:23:09.349Z,60.74
2019-05-20T15:25:36.507Z,61.26
2019-05-20T15:28:07.724Z,59.90
2019-05-20T15:30:35.522Z,61.75
2019-05-20T15:33:03.625Z,61.47
2019-05-20T15:35:32.578Z,61.65
2019-05-20T15:38:00.746Z,61.66
2019-05-20T15:40:29.871Z,61.90
2019-05-20T15:42:56.940Z,62.68
2019-05-20T15:45:23.776Z,61.49
2019-05-20T15:47:51.870Z,61.18
2019-05-20T15:50:19.138Z,61.33
2019-05-20T15:52:46.293Z,62.22
2019-05-20T15:55:13.514Z,61.37
2019-05-20T15:57:41.580Z,62.69
2019-05-20T16:00:12.617Z,61.61
2019-05-20T16:02:39.642Z,61.79
2019-05-20T16:05:07.893Z,62.77
2019-05-20T16:07:34.805Z,63.48
2019-05-20T16:10:02.908Z,63.88
2019-05-20T16:12:33.741Z,65.23
2019-05-20T16:14:59.374Z,67.67
2019-05-20T16:17:26.222Z,69.18
2019-05-20T16:19:53.377Z,71.44
2019-05-20T16:22:20.479Z,73.37
2019-05-20T16:24:47.790Z,73.32
2019-05-20T16:27:15.542Z,73.61
2019-05-20T16:29:42.903Z,73.25
2019-05-20T16:32:09.870Z,73.94
2019-05-20T16:34:36.691Z,73.82
2019-05-20T16:37:03.611Z,74.20
2019-05-20T16:39:31.695Z,74.14
2019-05-20T16:41:58.904Z,74.54
2019-05-20T16:44:25.719Z,74.26
2019-05-20T16:46:52.801Z,74.79
2019-05-20T16:49:19.630Z,75.63
2019-05-20T16:51:50.499Z,75.67
2019-05-20T16:54:22.057Z,76.15
2019-05-20T16:56:48.955Z,75.90
2019-05-20T16:59:17.099Z,77.00
2019-05-20T17:01:46.528Z,77.27
2019-05-20T17:04:13.042Z,75.95
2019-05-20T17:06:39.801Z,76.35
2019-05-20T17:09:07.166Z,77.18
2019-05-20T17:11:34.211Z,77.42
2019-05-20T17:14:00.797Z,78.58
2019-05-20T17:16:27.581Z,77.59
2019-05-20T17:18:55.392Z,77.38
2019-05-20T17:21:23.451Z,77.65
2019-05-20T17:23:51.233Z,77.02
2019-05-20T17:26:18.109Z,77.88
2019-05-20T17:28:45.533Z,76.82
2019-05-20T17:31:12.579Z,79.40
2019-05-20T17:33:40.961Z,79.47
2019-05-20T17:36:08.354Z,78.66
2019-05-20T17:38:36.247Z,78.07
2019-05-20T17:41:04.380Z,77.22
2019-05-20T17:43:31.779Z,77.24
2019-05-20T17:45:59.034Z,76.60
2019-05-20T17:48:27.132Z,77.86
2019-05-20T17:50:53.979Z,77.36
2019-05-20T17:53:21.955Z,77.54
2019-05-20T17:55:49.829Z,78.06
2019-05-20T17:58:16.968Z,78.72
2019-05-20T18:00:45.157Z,79.06
2019-05-20T18:03:11.987Z,80.12
2019-05-20T18:05:39.858Z,79.67
2019-05-20T18:08:07.896Z,79.41
2019-05-20T18:10:36.755Z,78.92
2019-05-20T18:13:03.824Z,79.94
2019-05-20T18:15:30.914Z,80.09
2019-05-20T18:17:58.011Z,79.99
2019-05-20T18:20:24.811Z,78.65
2019-05-20T18:22:52.774Z,78.08
2019-05-20T18:25:20.804Z,78.40
2019-05-20T18:27:47.494Z,78.11
2019-05-20T18:30:15.485Z,77.49
2019-05-20T18:32:44.759Z,78.58
2019-05-20T18:35:12.488Z,79.14
2019-05-20T18:37:42.795Z,78.85
2019-05-20T18:40:14.366Z,80.03
2019-05-20T18:42:39.980Z,80.63
2019-05-20T18:45:07.439Z,81.28
2019-05-20T18:47:35.116Z,79.52
2019-05-20T18:50:05.888Z,78.49
2019-05-20T18:52:33.047Z,79.19
2019-05-20T18:55:01.440Z,78.50
2019-05-20T18:57:31.565Z,80.39
2019-05-20T18:59:58.737Z,79.60
2019-05-20T19:02:26.484Z,79.32
2019-05-20T19:04:53.277Z,78.51
2019-05-20T19:07:20.386Z,79.10
2019-05-20T19:09:47.246Z,80.04
2019-05-20T19:12:14.494Z,79.16
2019-05-20T19:14:42.092Z,78.93
2019-05-20T19:17:10.038Z,79.58
2019-05-20T19:19:37.232Z,78.81
2019-05-20T19:22:06.474Z,79.39
2019-05-20T19:24:33.518Z,79.83
2019-05-20T19:27:02.025Z,78.86
2019-05-20T19:29:31.398Z,78.58
2019-05-20T19:32:01.828Z,79.20
2019-05-20T19:34:29.441Z,79.70
2019-05-20T19:36:57.426Z,80.71
2019-05-20T19:39:24.904Z,79.93
2019-05-20T19:41:54.241Z,79.53
2019-05-20T19:44:22.126Z,79.57
2019-05-20T19:46:53.623Z,79.36
2019-05-20T19:49:22.864Z,79.43
2019-05-20T19:51:51.254Z,77.99
2019-05-20T19:54:18.911Z,78.89
2019-05-20T19:56:49.510Z,78.60
2019-05-20T19:59:16.777Z,78.11
2019-05-20T20:01:46.869Z,78.22
2019-05-20T20:04:13.974Z,77.65
2019-05-20T20:06:40.718Z,78.22
2019-05-20T20:09:07.837Z,79.53
2019-05-20T20:11:34.969Z,78.24
2019-05-20T20:14:02.300Z,77.94
2019-05-20T20:16:29.132Z,79.29
2019-05-20T20:18:58.293Z,79.99
2019-05-20T20:21:26.179Z,79.47
2019-05-20T20:23:52.989Z,79.65
2019-05-20T20:26:22.458Z,79.63
2019-05-20T20:28:49.826Z,80.40
2019-05-20T20:31:17.030Z,80.42
2019-05-20T20:33:44.441Z,80.58
2019-05-20T20:36:11.581Z,81.55
2019-05-20T20:38:38.872Z,81.23
2019-05-20T20:41:05.623Z,80.61
2019-05-20T20:43:32.494Z,79.82
2019-05-20T20:46:00.532Z,79.21
2019-05-20T20:48:27.592Z,78.98
2019-05-20T20:50:54.510Z,79.13
2019-05-20T20:53:21.596Z,79.50
2019-05-20T20:55:49.018Z,79.57
2019-05-20T20:58:16.222Z,80.91
2019-05-20T21:00:43.441Z,80.46
2019-05-20T21:03:10.210Z,81.60
2019-05-20T21:05:36.788Z,81.71
2019-05-20T21:08:03.724Z,81.11
2019-05-20T21:10:30.580Z,80.41
2019-05-20T21:12:57.272Z,81.59
2019-05-20T21:15:24.106Z,80.84
2019-05-20T21:17:50.909Z,81.13
2019-05-20T21:20:17.768Z,81.48
2019-05-20T21:22:44.469Z,81.40
2019-05-20T21:25:13.080Z,80.54
2019-05-20T21:27:39.897Z,80.49
2019-05-20T21:30:09.139Z,80.25
2019-05-20T21:32:36.265Z,80.62
2019-05-20T21:35:05.839Z,81.69
2019-05-20T21:37:33.075Z,81.21
2019-05-20T21:40:01.082Z,80.87
2019-05-20T21:42:27.951Z,80.86
2019-05-20T21:44:56.109Z,80.47
2019-05-20T21:47:22.739Z,79.96
2019-05-20T21:49:50.760Z,80.79
2019-05-20T21:52:18.808Z,79.88
2019-05-20T21:54:47.868Z,80.50
2019-05-20T21:57:14.912Z,80.22
2019-05-20T21:59:42.776Z,79.87
2019-05-20T22:02:10.345Z,79.70
2019-05-20T22:04:37.225Z,80.49
2019-05-20T22:07:04.197Z,81.48
2019-05-20T22:09:31.397Z,80.49
2019-05-20T22:11:58.059Z,80.49
2019-05-20T22:14:25.822Z,80.19
2019-05-20T22:16:53.736Z,79.90
2019-05-20T22:19:20.651Z,78.80
2019-05-20T22:21:49.147Z,79.67
2019-05-20T22:24:16.861Z,80.16
2019-05-20T22:26:43.706Z,79.65
2019-05-20T22:29:10.794Z,79.92
2019-05-20T22:31:37.371Z,80.74
2019-05-20T22:34:04.511Z,80.62
2019-05-20T22:36:32.314Z,80.82
2019-05-20T22:39:00.058Z,80.65
2019-05-20T22:41:27.055Z,80.06
2019-05-20T22:43:53.917Z,80.31
2019-05-20T22:46:20.607Z,79.10
2019-05-20T22:48:47.269Z,80.25
2019-05-20T22:51:15.245Z,80.07
2019-05-20T22:53:41.812Z,79.44
2019-05-20T22:57:04.993Z,80.21
2019-05-20T22:59:31.856Z,79.50
2019-05-20T23:01:59.773Z,79.10
2019-05-20T23:04:27.381Z,79.71
2019-05-20T23:06:54.459Z,80.14
2019-05-20T23:09:22.325Z,79.93
2019-05-20T23:11:48.917Z,79.69
2019-05-20T23:14:15.521Z,79.85
2019-05-20T23:16:42.595Z,79.56
2019-05-20T23:19:09.348Z,79.12
2019-05-20T23:21:35.968Z,79.73
2019-05-20T23:24:04.840Z,79.24
2019-05-20T23:26:31.927Z,80.09
2019-05-20T23:28:58.727Z,79.69
2019-05-20T23:31:27.019Z,79.34
2019-05-20T23:33:54.657Z,79.36
2019-05-20T23:36:21.398Z,79.75
2019-05-20T23:38:48.116Z,80.62
2019-05-20T23:41:16.069Z,80.66
2019-05-20T23:43:43.029Z,81.29
2019-05-20T23:46:09.815Z,80.26
2019-05-20T23:48:36.420Z,80.59
2019-05-20T23:51:03.296Z,81.57
2019-05-20T23:53:29.937Z,80.58
2019-05-20T23:55:56.652Z,80.45
2019-05-20T23:58:23.501Z,79.44
